Time;durP1;ratioP1;P1;durP2;ratioP2;P2;SDS_P1;SDS_P2;PMS_P1;PMS_P2;Temp;Humidity;BMP_temperature;BMP_pressure;BME280_temperature;BME280_humidity;BME280_pressure;Samples;Min_cycle;Max_cycle;Signal;HPM_P1;HPM_P2
2022/09/12 00:01:50;;;;;;;6.93;4.47;;;;;;;9.56;92.08;94054.78;5011716;28;20034;-67
2022/09/12 00:04:16;;;;;;;7.28;4.68;;;;;;;9.62;91.81;94057.06;5011524;28;20046;-65
2022/09/12 00:06:43;;;;;;;6.57;4.10;;;;;;;9.48;92.62;94056.03;5012054;28;20049;-64
2022/09/12 00:09:12;;;;;;;7.15;3.65;;;;;;;9.51;91.94;94051.72;4998151;28;20050;-64
2022/09/12 00:11:42;;;;;;;7.60;4.22;;;;;;;9.52;92.66;94056.78;5011949;28;20068;-64
2022/09/12 00:14:12;;;;;;;7.35;4.40;;;;;;;9.55;92.50;94058.69;5011489;28;20037;-70
2022/09/12 00:16:39;;;;;;;14.38;6.00;;;;;;;9.52;92.18;94051.31;5012125;28;20104;-69
2022/09/12 00:19:06;;;;;;;8.40;4.70;;;;;;;9.48;92.76;94055.28;5010888;28;20046;-64
2022/09/12 00:21:34;;;;;;;8.90;4.93;;;;;;;9.51;92.45;94052.47;5011808;28;20103;-64
2022/09/12 00:24:01;;;;;;;9.77;5.32;;;;;;;9.52;92.16;94056.78;5010975;28;20060;-64
2022/09/12 00:26:28;;;;;;;11.25;5.30;;;;;;;9.51;92.32;94040.75;5011727;28;20049;-64
2022/09/12 00:28:55;;;;;;;10.05;5.45;;;;;;;9.47;92.55;94048.22;5010784;28;20072;-65
2022/09/12 00:31:24;;;;;;;9.67;6.30;;;;;;;9.48;92.44;94047.06;5011719;28;20046;-64
2022/09/12 00:33:53;;;;;;;8.23;5.03;;;;;;;9.48;92.29;94044.31;5011407;28;20038;-67
2022/09/12 00:36:22;;;;;;;9.50;5.55;;;;;;;9.33;92.28;94038.94;5010441;28;20057;-68
2022/09/12 00:38:50;;;;;;;8.48;4.90;;;;;;;9.32;92.08;94048.34;5010808;28;20076;-64
2022/09/12 00:41:20;;;;;;;8.93;4.95;;;;;;;9.16;92.69;94046.13;5010425;28;20637;-65
2022/09/12 00:43:57;;;;;;;7.53;4.70;;;;;;;9.22;92.26;94046.47;5011311;28;20046;-65
2022/09/12 00:46:29;;;;;;;6.63;3.92;;;;;;;9.21;92.11;94047.66;5010228;28;20049;-67
2022/09/12 00:49:02;;;;;;;6.45;3.92;;;;;;;9.16;91.82;94045.34;5009707;28;20045;-64
2022/09/12 00:51:32;;;;;;;6.63;4.15;;;;;;;9.16;91.69;94039.88;5011588;28;20053;-64
2022/09/12 00:54:04;;;;;;;44.42;25.35;;;;;;;9.14;91.67;94037.53;5010798;28;20046;-67
2022/09/12 00:56:31;;;;;;;30.97;16.73;;;;;;;9.12;91.66;94037.16;5011153;28;20049;-63
2022/09/12 00:59:13;;;;;;;14.90;8.45;;;;;;;9.12;90.99;94033.66;5009157;28;20054;-64
2022/09/12 01:01:40;;;;;;;10.07;5.72;;;;;;;9.03;91.79;94023.16;5011034;28;20056;-64
2022/09/12 01:04:09;;;;;;;8.65;5.00;;;;;;;9.06;91.70;94024.31;5010276;28;20053;-67
2022/09/12 01:06:40;;;;;;;7.72;4.40;;;;;;;9.06;91.01;94021.59;5010056;28;20049;-65
2022/09/12 01:09:08;;;;;;;7.87;4.60;;;;;;;8.97;90.17;94022.81;5010341;28;20048;-67
2022/09/12 01:11:37;;;;;;;7.88;4.93;;;;;;;8.96;90.80;94018.50;5010907;28;20046;-66
2022/09/12 01:14:06;;;;;;;7.93;4.25;;;;;;;8.95;90.90;94003.28;5009886;28;20123;-68
2022/09/12 01:16:37;;;;;;;6.90;4.28;;;;;;;8.92;90.32;94006.03;5010935;28;20403;-69
2022/09/12 01:19:25;;;;;;;6.43;3.85;;;;;;;8.85;90.75;94004.13;4994278;28;20038;-64
2022/09/12 01:22:18;;;;;;;12.73;6.23;;;;;;;8.75;91.04;94007.72;5008778;28;20117;-62
2022/09/12 01:24:53;;;;;;;11.40;5.97;;;;;;;8.67;91.46;94012.47;4999452;28;20065;-64
2022/09/12 01:27:34;;;;;;;10.27;5.05;;;;;;;8.67;92.07;94009.75;5010020;28;20050;-65
2022/09/12 01:30:38;;;;;;;11.57;6.30;;;;;;;8.70;92.45;94008.16;5009817;28;20046;-64
2022/09/12 01:33:28;;;;;;;12.15;5.93;;;;;;;8.67;92.97;94007.00;5009826;28;20556;-67
2022/09/12 01:36:19;;;;;;;11.77;5.43;;;;;;;8.64;93.67;94007.03;5009737;28;20406;-64
2022/09/12 01:38:58;;;;;;;9.88;5.00;;;;;;;8.63;93.74;94005.44;5010532;28;20049;-69
2022/09/12 01:41:53;;;;;;;10.00;4.88;;;;;;;8.65;93.00;94009.34;5009548;28;20215;-64
2022/09/12 01:44:30;;;;;;;9.98;5.00;;;;;;;8.55;94.87;94001.97;5009477;28;21540;-63
2022/09/12 01:47:00;;;;;;;10.00;5.30;;;;;;;8.47;95.76;94001.25;5008185;28;20045;-69
2022/09/12 01:49:36;;;;;;;9.37;5.60;;;;;;;8.34;95.85;93997.38;5009868;28;20042;-68
2022/09/12 01:52:09;;;;;;;9.45;5.38;;;;;;;8.47;95.55;93986.78;5010188;28;20050;-69
2022/09/12 01:55:05;;;;;;;8.05;4.55;;;;;;;8.48;94.88;93985.63;5010342;28;20046;-64
2022/09/12 01:57:56;;;;;;;8.35;5.10;;;;;;;8.37;94.77;93978.22;5003326;28;20727;-63
2022/09/12 02:00:23;;;;;;;8.88;5.10;;;;;;;8.19;94.68;93985.75;5009490;28;20049;-62
2022/09/12 02:02:56;;;;;;;8.80;4.80;;;;;;;7.93;95.53;93987.81;5009818;28;20061;-63
2022/09/12 02:05:36;;;;;;;62.88;5.45;;;;;;;7.68;96.83;93974.25;5009332;28;20681;-68
2022/09/12 02:08:16;;;;;;;16.77;5.68;;;;;;;7.76;96.74;93977.72;5009168;28;20050;-69
2022/09/12 02:10:48;;;;;;;57.25;26.30;;;;;;;7.81;96.58;93971.88;5010083;28;20103;-63
2022/09/12 02:13:24;;;;;;;22.20;8.00;;;;;;;7.89;96.15;93967.94;5009904;28;20080;-64
2022/09/12 02:15:57;;;;;;;11.93;5.17;;;;;;;7.83;96.75;93964.06;5009211;28;20046;-62
2022/09/12 02:18:26;;;;;;;13.15;5.53;;;;;;;7.86;96.11;93962.47;5012452;28;20046;-64
2022/09/12 02:20:55;;;;;;;10.75;5.10;;;;;;;7.88;96.23;93960.13;5013171;28;20050;-64
2022/09/12 02:23:26;;;;;;;28.42;5.65;;;;;;;7.91;95.67;93956.63;5013902;28;20046;-63
2022/09/12 02:26:12;;;;;;;24.05;5.82;;;;;;;7.87;95.73;93950.34;5013473;28;20056;-63
2022/09/12 02:28:41;;;;;;;29.77;6.30;;;;;;;7.85;96.77;93950.78;5013704;28;20152;-67
2022/09/12 02:31:21;;;;;;;44.85;5.65;;;;;;;7.80;97.17;93954.69;5012436;28;20054;-63
2022/09/12 02:33:55;;;;;;;23.45;7.13;;;;;;;7.85;97.24;93958.16;5014003;28;20058;-63
2022/09/12 02:36:42;;;;;;;15.00;5.40;;;;;;;7.91;97.35;93951.16;4999403;28;21497;-68
2022/09/12 02:39:09;;;;;;;12.98;4.93;;;;;;;7.77;97.62;93951.97;5012894;28;20422;-66
2022/09/12 02:41:35;;;;;;;17.30;5.00;;;;;;;7.84;96.69;93962.09;5013434;28;20049;-64
2022/09/12 02:44:03;;;;;;;19.30;4.85;;;;;;;7.79;96.90;93949.63;5012714;28;20042;-67
2022/09/12 02:46:48;;;;;;;16.80;5.47;;;;;;;7.76;96.88;93953.16;5013331;28;20376;-64
2022/09/12 02:49:16;;;;;;;20.42;5.53;;;;;;;7.65;96.75;93958.66;5013150;28;20045;-63
2022/09/12 02:51:44;;;;;;;11.70;4.70;;;;;;;7.72;96.63;93957.84;5012609;28;20054;-63
2022/09/12 02:54:12;;;;;;;10.13;4.60;;;;;;;7.68;96.92;93954.34;5012616;28;20046;-63
2022/09/12 02:56:42;;;;;;;9.77;4.90;;;;;;;7.64;96.13;93959.81;5013383;28;20046;-63
2022/09/12 02:59:13;;;;;;;8.20;4.40;;;;;;;7.68;96.00;93952.38;5012581;28;20037;-63
2022/09/12 03:01:45;;;;;;;7.97;4.30;;;;;;;7.73;96.15;93945.75;5013329;28;20442;-64
2022/09/12 03:04:24;;;;;;;9.77;4.90;;;;;;;7.67;96.26;93948.13;5011130;28;20111;-65
2022/09/12 03:07:34;;;;;;;14.33;5.07;;;;;;;7.72;96.26;93941.44;5013229;28;20450;-73
2022/09/12 03:10:24;;;;;;;11.13;4.95;;;;;;;7.71;96.66;93934.44;5011417;28;20095;-66
2022/09/12 03:13:17;;;;;;;12.40;5.00;;;;;;;7.64;96.33;93935.25;5011397;28;20052;-66
2022/09/12 03:15:43;;;;;;;11.40;4.93;;;;;;;7.67;96.97;93939.16;5012230;28;20154;-64
2022/09/12 03:18:31;;;;;;;13.55;4.65;;;;;;;7.55;96.11;93935.66;5012380;28;20064;-64
2022/09/12 03:21:12;;;;;;;16.17;4.87;;;;;;;7.49;97.45;93947.41;5012371;28;20517;-64
2022/09/12 03:23:50;;;;;;;31.85;5.35;;;;;;;7.40;97.83;93942.34;5000418;28;20061;-65
2022/09/12 03:26:31;;;;;;;39.05;5.57;;;;;;;7.34;98.88;93943.91;5011946;28;20698;-68
2022/09/12 03:29:00;;;;;;;21.73;5.10;;;;;;;7.39;98.87;93940.78;5010681;28;20462;-65
2022/09/12 03:31:27;;;;;;;14.13;5.20;;;;;;;7.34;98.92;93941.94;5012748;28;20048;-64
2022/09/12 03:33:54;;;;;;;10.60;5.20;;;;;;;7.42;97.93;93944.69;5011668;28;20060;-69
2022/09/12 03:36:24;;;;;;;11.27;5.00;;;;;;;7.40;98.11;93940.41;5012837;28;20056;-65
2022/09/12 03:38:51;;;;;;;16.48;5.93;;;;;;;7.31;98.47;93944.72;5012382;28;20127;-67
2022/09/12 03:41:18;;;;;;;13.90;5.50;;;;;;;7.35;98.70;93948.97;5010341;28;20050;-64
2022/09/12 03:43:45;;;;;;;25.80;5.60;;;;;;;7.26;99.37;93956.78;5012710;28;20048;-69
2022/09/12 03:46:12;;;;;;;13.40;5.83;;;;;;;7.07;99.95;93955.28;5011362;28;20123;-69
2022/09/12 03:48:40;;;;;;;23.77;6.00;;;;;;;7.12;100.00;93949.44;5011286;28;20060;-64
2022/09/12 03:51:09;;;;;;;27.98;5.85;;;;;;;7.12;100.00;93948.63;4994960;28;20052;-64
2022/09/12 03:53:35;;;;;;;35.50;6.20;;;;;;;7.23;100.00;93946.69;5012351;28;20406;-64
2022/09/12 03:56:07;;;;;;;15.32;5.97;;;;;;;7.27;99.99;93950.19;5011412;28;20505;-65
2022/09/12 03:58:35;;;;;;;42.70;6.07;;;;;;;7.19;99.81;93959.56;5012172;28;20041;-70
2022/09/12 04:01:16;;;;;;;15.52;6.13;;;;;;;7.28;100.00;93953.69;5009896;28;20044;-63
2022/09/12 04:03:45;;;;;;;20.80;6.55;;;;;;;7.17;99.77;93949.03;5012063;28;20503;-64
2022/09/12 04:06:14;;;;;;;14.30;5.47;;;;;;;7.18;99.88;93947.88;4997747;28;20069;-69
2022/09/12 04:08:42;;;;;;;22.80;6.45;;;;;;;7.31;99.95;93944.72;5012155;28;20052;-65
2022/09/12 04:11:12;;;;;;;20.63;6.33;;;;;;;7.25;99.63;93947.06;5011283;28;20042;-66
2022/09/12 04:13:42;;;;;;;31.55;6.95;;;;;;;7.33;100.00;93948.59;5011834;28;20054;-63
2022/09/12 04:16:09;;;;;;;60.85;7.25;;;;;;;7.28;100.00;93950.94;5011048;28;20393;-64
2022/09/12 04:18:36;;;;;;;71.00;7.47;;;;;;;7.08;100.00;93951.38;5027020;28;20085;-64
2022/09/12 04:21:12;;;;;;;55.10;7.45;;;;;;;7.16;100.00;93952.13;5011161;28;20049;-68
2022/09/12 04:23:38;;;;;;;36.30;7.90;;;;;;;7.20;100.00;93948.25;4998936;28;20544;-67
2022/09/12 04:26:06;;;;;;;32.20;8.20;;;;;;;7.35;100.00;93953.69;5010620;28;20099;-63
2022/09/12 04:28:35;;;;;;;38.78;7.90;;;;;;;7.39;100.00;93954.44;5011514;28;20050;-63
2022/09/12 04:31:11;;;;;;;28.00;8.05;;;;;;;7.26;100.00;93951.34;5010934;28;20045;-62
2022/09/12 04:33:38;;;;;;;52.88;8.65;;;;;;;7.33;100.00;93951.34;5011307;28;20457;-61
2022/09/12 04:36:08;;;;;;;44.13;7.90;;;;;;;7.35;100.00;93942.75;5010484;28;20050;-66
2022/09/12 04:38:35;;;;;;;57.17;8.18;;;;;;;7.32;100.00;93949.00;5011335;28;20082;-63
2022/09/12 04:41:31;;;;;;;70.43;8.05;;;;;;;7.27;100.00;93947.44;5010043;28;20046;-65
2022/09/12 04:44:01;;;;;;;45.33;9.30;;;;;;;7.34;100.00;93939.22;5010328;28;20069;-72
2022/09/12 04:46:33;;;;;;;58.90;8.75;;;;;;;7.31;100.00;93942.75;5010715;28;20050;-64
2022/09/12 04:49:00;;;;;;;42.53;8.60;;;;;;;7.28;100.00;93943.53;5009100;28;20068;-63
2022/09/12 04:51:30;;;;;;;23.58;7.95;;;;;;;7.33;100.00;93950.56;5010253;28;20488;-63
2022/09/12 04:54:00;;;;;;;28.38;7.97;;;;;;;7.36;100.00;93941.56;5010651;28;20046;-63
2022/09/12 04:56:27;;;;;;;54.67;7.50;;;;;;;7.18;100.00;93947.06;5011032;28;20045;-62
2022/09/12 04:58:59;;;;;;;42.33;7.97;;;;;;;7.12;100.00;93946.72;5010340;28;20393;-68
2022/09/12 05:01:27;;;;;;;57.60;7.77;;;;;;;7.23;100.00;93954.09;5009654;28;20402;-63
2022/09/12 05:03:55;;;;;;;40.05;7.68;;;;;;;7.17;100.00;93948.25;5010306;28;20054;-62
2022/09/12 05:06:24;;;;;;;31.50;7.28;;;;;;;7.08;100.00;93954.09;5010552;28;20532;-68
2022/09/12 05:08:52;;;;;;;50.95;8.05;;;;;;;7.19;100.00;93951.38;5010653;28;20050;-63
2022/09/12 05:11:21;;;;;;;70.85;10.07;;;;;;;7.22;100.00;93955.25;5009780;28;20522;-64
2022/09/12 05:13:54;;;;;;;48.83;7.43;;;;;;;7.17;100.00;93949.03;5010220;28;20045;-66
2022/09/12 05:16:21;;;;;;;70.63;7.85;;;;;;;7.11;100.00;93956.06;5008942;28;20050;-62
2022/09/12 05:18:49;;;;;;;44.30;8.00;;;;;;;7.16;100.00;93950.22;5010416;28;20050;-63
2022/09/12 05:21:18;;;;;;;32.75;7.60;;;;;;;7.22;100.00;93953.28;5009731;28;20045;-66
2022/09/12 05:23:46;;;;;;;56.28;7.22;;;;;;;7.20;100.00;93948.25;5010493;28;20111;-62
2022/09/12 05:26:14;;;;;;;39.00;7.30;;;;;;;7.21;100.00;93954.47;5009662;28;20541;-62
2022/09/12 05:28:42;;;;;;;15.07;7.20;;;;;;;7.39;100.00;93948.97;5010400;28;20046;-62
2022/09/12 05:31:14;;;;;;;22.85;6.93;;;;;;;7.42;100.00;93950.91;5009620;28;20320;-65
2022/09/12 05:33:43;;;;;;;53.97;7.07;;;;;;;7.36;100.00;93947.03;5010231;28;20069;-67
2022/09/12 05:36:16;;;;;;;55.05;7.03;;;;;;;7.36;100.00;93952.50;5009649;28;20414;-65
2022/09/12 05:38:44;;;;;;;58.97;7.23;;;;;;;7.45;100.00;93952.88;5010029;28;20155;-62
2022/09/12 05:41:13;;;;;;;37.83;8.10;;;;;;;7.31;100.00;93947.44;5009230;28;20064;-62
2022/09/12 05:43:50;;;;;;;38.22;7.65;;;;;;;7.46;100.00;93954.41;5009744;28;20107;-62
2022/09/12 05:46:19;;;;;;;23.20;7.78;;;;;;;7.47;100.00;93955.22;4995104;28;20681;-62
2022/09/12 05:48:47;;;;;;;31.17;7.72;;;;;;;7.36;100.00;93955.22;5010248;28;20080;-68
2022/09/12 05:51:20;;;;;;;24.60;10.37;;;;;;;7.54;100.00;93957.91;5009118;28;20530;-62
2022/09/12 05:53:52;;;;;;;73.65;8.30;;;;;;;7.72;100.00;93955.88;5009449;28;20052;-62
2022/09/12 05:56:22;;;;;;;66.97;8.00;;;;;;;7.88;98.89;93958.16;5008949;28;20792;-68
2022/09/12 05:58:55;;;;;;;19.58;7.10;;;;;;;8.15;98.01;93957.66;5010038;28;20062;-65
2022/09/12 06:01:22;;;;;;;18.00;6.72;;;;;;;8.28;97.32;93964.22;5009024;28;20690;-62
2022/09/12 06:03:51;;;;;;;14.17;7.27;;;;;;;8.59;94.84;93965.22;5008716;28;20045;-62
2022/09/12 06:06:20;;;;;;;34.80;7.03;;;;;;;8.64;93.73;93965.97;5005842;28;22124;-62
2022/09/12 06:08:51;;;;;;;17.33;6.28;;;;;;;8.57;93.80;93972.25;5010589;28;20052;-62
2022/09/12 06:11:24;;;;;;;45.72;7.05;;;;;;;8.98;92.18;93968.84;5008755;28;20865;-69
2022/09/12 06:13:52;;;;;;;50.42;6.72;;;;;;;9.49;89.59;93975.41;5009798;28;20184;-63
2022/09/12 06:16:21;;;;;;;24.87;6.90;;;;;;;9.83;88.79;93971.91;5008466;28;20852;-63
2022/09/12 06:18:52;;;;;;;23.17;6.80;;;;;;;10.04;87.90;93981.06;4996291;28;20044;-71
2022/09/12 06:21:20;;;;;;;19.92;5.97;;;;;;;9.92;87.34;93976.88;4997532;28;20838;-62
2022/09/12 06:23:47;;;;;;;19.77;6.40;;;;;;;10.15;86.28;93976.22;5009693;28;20465;-63
2022/09/12 06:26:16;;;;;;;47.60;6.55;;;;;;;9.91;85.81;93976.13;5009013;28;20045;-63
2022/09/12 06:28:44;;;;;;;19.07;5.90;;;;;;;10.52;85.30;93974.59;5009908;28;20060;-64
2022/09/12 06:31:13;;;;;;;14.63;6.40;;;;;;;11.25;82.39;93966.78;5008965;28;20054;-64
2022/09/12 06:33:42;;;;;;;11.38;6.70;;;;;;;11.47;81.45;93965.25;5008420;28;20053;-63
2022/09/12 06:36:12;;;;;;;12.55;6.15;;;;;;;11.75;78.75;93963.13;5008978;28;20045;-63
2022/09/12 06:38:39;;;;;;;26.48;6.40;;;;;;;11.13;80.69;93959.94;5009890;28;20544;-63
2022/09/12 06:41:09;;;;;;;15.23;6.37;;;;;;;11.72;80.42;93964.00;5008408;28;20434;-63
2022/09/12 06:43:36;;;;;;;20.80;6.10;;;;;;;12.14;77.92;93965.16;5009214;28;20050;-68
2022/09/12 06:46:03;;;;;;;12.23;5.95;;;;;;;12.45;76.77;93956.63;5008393;28;20045;-64
2022/09/12 06:48:30;;;;;;;10.10;5.40;;;;;;;12.63;75.08;93961.75;5008811;28;20054;-65
2022/09/12 06:50:59;;;;;;;12.40;5.68;;;;;;;12.70;74.46;93958.84;5009201;28;20058;-66
2022/09/12 06:53:27;;;;;;;22.73;6.20;;;;;;;12.71;74.63;93957.63;5008936;28;20080;-69
2022/09/12 06:56:03;;;;;;;13.48;5.85;;;;;;;13.02;73.09;93953.78;5008948;28;20054;-65
2022/09/12 06:58:30;;;;;;;10.85;5.78;;;;;;;13.74;71.22;93952.78;5007203;28;20065;-64
2022/09/12 07:01:06;;;;;;;12.23;5.97;;;;;;;14.16;69.72;93955.56;5009082;28;20049;-68
2022/09/12 07:03:34;;;;;;;12.18;6.32;;;;;;;15.07;66.41;93946.97;5010664;28;20060;-66
2022/09/12 07:06:09;;;;;;;11.17;6.47;;;;;;;17.16;60.68;93946.63;5012868;28;20123;-65
2022/09/12 07:08:37;;;;;;;9.40;5.80;;;;;;;19.58;53.45;93937.50;5013176;28;20046;-65
2022/09/12 07:11:12;;;;;;;9.10;6.00;;;;;;;21.99;47.06;93946.88;5012662;28;20042;-69
2022/09/12 07:13:41;;;;;;;8.52;5.63;;;;;;;20.80;47.91;93942.34;5012993;28;20056;-69
2022/09/12 07:16:09;;;;;;;8.10;5.60;;;;;;;20.27;48.91;93941.16;5012500;28;20050;-69
2022/09/12 07:18:37;;;;;;;10.30;6.40;;;;;;;20.33;49.77;93939.25;5011874;28;20042;-64
2022/09/12 07:21:06;;;;;;;9.57;5.70;;;;;;;23.61;43.80;93937.69;5012409;28;20330;-68
2022/09/12 07:23:33;;;;;;;7.50;5.28;;;;;;;25.16;40.30;93922.34;5011913;28;20072;-64
2022/09/12 07:26:00;;;;;;;9.70;5.22;;;;;;;26.05;37.76;93929.09;5009713;28;20473;-68
2022/09/12 07:28:30;;;;;;;10.15;5.78;;;;;;;26.13;37.02;93930.09;5013273;28;20406;-68
2022/09/12 07:30:57;;;;;;;8.23;5.33;;;;;;;26.85;35.45;93933.06;5012213;28;20072;-71
2022/09/12 07:33:27;;;;;;;10.40;5.22;;;;;;;26.75;36.00;93931.84;5012506;28;20050;-64
2022/09/12 07:35:54;;;;;;;7.25;5.20;;;;;;;24.51;39.19;93929.69;5010922;28;20048;-68
2022/09/12 07:38:20;;;;;;;7.85;5.03;;;;;;;24.45;40.54;93929.66;5012290;28;20096;-64
2022/09/12 07:40:47;;;;;;;6.72;5.00;;;;;;;24.96;39.15;93928.97;5012658;28;20549;-64
2022/09/12 07:43:14;;;;;;;5.73;4.23;;;;;;;25.43;38.38;93923.59;5011970;28;20408;-64
2022/09/12 07:45:42;;;;;;;6.60;4.57;;;;;;;27.43;36.02;93932.13;5012374;28;20403;-70
2022/09/12 07:48:08;;;;;;;6.45;4.90;;;;;;;27.61;35.45;93922.97;5011884;28;20049;-70
2022/09/12 07:50:35;;;;;;;6.95;4.43;;;;;;;27.72;34.99;93929.78;5012591;28;20087;-68
2022/09/12 07:53:03;;;;;;;7.60;4.60;;;;;;;26.22;36.69;93921.38;5011944;28;20487;-64
2022/09/12 07:55:30;;;;;;;5.97;3.90;;;;;;;26.73;35.60;93920.34;5012297;28;20046;-65
2022/09/12 07:57:57;;;;;;;7.03;3.70;;;;;;;26.55;35.94;93922.47;5011540;28;20064;-65
2022/09/12 08:00:24;;;;;;;5.78;3.70;;;;;;;26.93;35.66;93922.75;5011794;28;20072;-66
2022/09/12 08:02:52;;;;;;;6.00;3.35;;;;;;;28.71;33.52;93919.13;5012318;28;20064;-65
2022/09/12 08:05:22;;;;;;;6.20;3.85;;;;;;;29.95;31.12;93917.84;5010903;28;20425;-65
2022/09/12 08:07:49;;;;;;;4.57;3.40;;;;;;;29.89;31.59;93919.28;5012311;28;20058;-66
2022/09/12 08:10:20;;;;;;;8.38;3.88;;;;;;;28.54;33.40;93920.13;5011062;28;20886;-65
2022/09/12 08:12:47;;;;;;;6.60;3.88;;;;;;;29.53;32.52;93919.66;5011970;28;20415;-65
2022/09/12 08:15:14;;;;;;;6.60;3.88;;;;;;;28.08;35.46;93919.13;5010609;28;20060;-65
2022/09/12 08:17:41;;;;;;;5.70;3.63;;;;;;;28.76;34.49;93921.88;5011739;28;20041;-66
2022/09/12 08:20:08;;;;;;;6.20;3.63;;;;;;;29.98;32.17;93918.84;5011766;28;20099;-65
2022/09/12 08:22:35;;;;;;;7.55;3.30;;;;;;;30.93;31.58;93916.13;5011977;28;20186;-70
2022/09/12 08:25:02;;;;;;;6.35;2.47;;;;;;;32.04;28.29;93921.63;5007029;28;20384;-65
2022/09/12 08:27:28;;;;;;;6.70;3.20;;;;;;;28.06;34.86;93930.94;5012129;28;20458;-65
2022/09/12 08:29:55;;;;;;;3.70;2.25;;;;;;;29.47;31.82;93923.31;5010066;28;20415;-71
2022/09/12 08:32:22;;;;;;;4.73;2.30;;;;;;;30.61;30.55;93928.38;5011696;28;20399;-67
2022/09/12 08:34:48;;;;;;;4.68;2.40;;;;;;;29.95;31.15;93929.19;5011569;28;20077;-66
2022/09/12 08:37:15;;;;;;;3.97;1.90;;;;;;;30.53;30.41;93921.13;5011032;28;20045;-65
2022/09/12 08:39:42;;;;;;;4.18;1.60;;;;;;;31.20;28.61;93925.25;5010350;28;20384;-66
2022/09/12 08:42:16;;;;;;;2.90;1.60;;;;;;;32.16;26.35;93928.50;5010868;28;20384;-70
2022/09/12 08:45:07;;;;;;;3.07;1.37;;;;;;;32.42;26.75;93923.94;5011214;28;20046;-68
2022/09/12 08:47:38;;;;;;;4.50;1.35;;;;;;;34.34;24.18;93920.63;5010449;28;20050;-68
2022/09/12 08:50:14;;;;;;;2.63;1.40;;;;;;;32.41;25.98;93933.75;5010848;28;20044;-66
2022/09/12 08:52:57;;;;;;;2.90;1.33;;;;;;;31.63;26.86;93932.47;5011170;28;20057;-69
2022/09/12 08:55:34;;;;;;;3.25;1.30;;;;;;;33.92;25.01;93923.91;5010291;28;20593;-66
2022/09/12 08:58:15;;;;;;;3.93;1.30;;;;;;;34.84;23.30;93923.69;5010735;28;20103;-66
2022/09/12 09:01:00;;;;;;;2.75;1.10;;;;;;;33.38;24.81;93924.63;5011202;28;20101;-69
2022/09/12 09:04:04;;;;;;;2.50;1.10;;;;;;;32.17;26.14;93929.25;5010055;28;20843;-68
2022/09/12 09:06:50;;;;;;;3.33;1.40;;;;;;;32.29;26.25;93921.94;5009815;28;20684;-66
2022/09/12 09:09:38;;;;;;;2.13;1.15;;;;;;;32.75;25.26;93924.28;5009279;28;20100;-66
2022/09/12 09:12:42;;;;;;;2.70;1.27;;;;;;;32.17;26.19;93923.59;5010302;28;20065;-69
2022/09/12 09:15:30;;;;;;;3.53;1.40;;;;;;;31.74;27.21;93919.31;5010363;28;20045;-66
2022/09/12 09:18:03;;;;;;;2.80;1.20;;;;;;;32.84;25.44;93918.81;5010719;28;20034;-69
2022/09/12 09:20:56;;;;;;;2.53;1.20;;;;;;;33.68;24.55;93919.53;5010685;28;20045;-67
2022/09/12 09:23:29;;;;;;;2.13;1.00;;;;;;;34.05;22.95;93909.47;4996516;28;20659;-67
2022/09/12 09:26:09;;;;;;;2.47;0.93;;;;;;;34.55;22.96;93914.66;5010308;28;20064;-67
2022/09/12 09:28:41;;;;;;;2.35;1.00;;;;;;;32.73;24.09;93915.56;5010539;28;20054;-66
2022/09/12 09:31:16;;;;;;;2.15;1.10;;;;;;;31.47;26.37;93919.47;5010220;28;20045;-67
2022/09/12 09:33:45;;;;;;;2.20;1.23;;;;;;;32.03;26.14;93918.00;5010597;28;20510;-66
2022/09/12 09:36:39;;;;;;;3.03;1.00;;;;;;;32.72;24.82;93919.69;5010150;28;20063;-66
2022/09/12 09:39:18;;;;;;;3.27;1.20;;;;;;;34.28;23.31;93912.28;5009876;28;20087;-67
2022/09/12 09:42:08;;;;;;;2.70;1.00;;;;;;;33.49;24.02;93914.22;5010709;28;20042;-67
2022/09/12 09:44:35;;;;;;;2.10;1.00;;;;;;;32.53;24.92;93912.22;5008884;28;20688;-71
2022/09/12 09:47:02;;;;;;;3.47;1.10;;;;;;;32.01;25.47;93908.53;5009756;28;20122;-70
2022/09/12 09:49:32;;;;;;;2.10;1.00;;;;;;;33.96;23.80;93907.94;5010178;28;20045;-67
2022/09/12 09:52:00;;;;;;;2.73;0.90;;;;;;;34.32;23.37;93901.25;5009947;28;20048;-67
2022/09/12 09:54:36;;;;;;;2.20;1.10;;;;;;;32.15;24.42;93907.09;5008773;28;20084;-66
2022/09/12 09:57:03;;;;;;;2.10;0.90;;;;;;;33.53;24.07;93903.97;5009869;28;20042;-67
2022/09/12 09:59:32;;;;;;;1.90;1.00;;;;;;;33.70;24.45;93902.66;5008476;28;20045;-67
2022/09/12 10:02:19;;;;;;;2.22;0.80;;;;;;;33.47;23.13;93903.41;5009729;28;20041;-67
2022/09/12 10:04:57;;;;;;;2.33;0.93;;;;;;;32.22;24.93;93911.31;5010074;28;20050;-67
2022/09/12 10:07:25;;;;;;;2.30;0.95;;;;;;;32.50;23.54;93899.16;5008867;28;20541;-67
2022/09/12 10:10:04;;;;;;;1.80;0.80;;;;;;;32.92;22.23;93896.09;5009600;28;20046;-65
2022/09/12 10:12:31;;;;;;;2.75;0.80;;;;;;;31.76;23.58;93897.56;5008653;28;20172;-67
2022/09/12 10:15:14;;;;;;;1.85;0.80;;;;;;;31.24;24.90;93894.47;5009483;28;20058;-70
2022/09/12 10:17:45;;;;;;;2.30;0.83;;;;;;;30.85;25.27;93892.56;5010149;28;20064;-67
2022/09/12 10:20:41;;;;;;;2.30;1.00;;;;;;;31.64;24.28;93887.84;5009550;28;20135;-67
2022/09/12 10:23:29;;;;;;;1.95;0.90;;;;;;;30.45;25.66;93881.38;5009474;28;20046;-67
2022/09/12 10:26:00;;;;;;;2.47;0.90;;;;;;;30.29;26.02;93885.31;5009430;28;20083;-71
2022/09/12 10:28:42;;;;;;;2.20;1.02;;;;;;;30.51;24.79;93884.84;5009790;28;20054;-67
2022/09/12 10:31:14;;;;;;;1.97;0.90;;;;;;;30.10;25.26;93877.69;5008178;28;20084;-70
2022/09/12 10:33:46;;;;;;;2.13;0.80;;;;;;;29.53;26.62;93877.22;5009553;28;20053;-67
2022/09/12 10:36:14;;;;;;;1.92;0.80;;;;;;;29.47;26.39;93882.97;5009236;28;20050;-70
2022/09/12 10:38:48;;;;;;;1.95;0.93;;;;;;;30.57;25.15;93879.81;5005355;28;20046;-66
2022/09/12 10:41:15;;;;;;;2.30;0.90;;;;;;;30.98;25.45;93878.38;5008260;28;20096;-70
2022/09/12 10:43:42;;;;;;;2.03;0.80;;;;;;;31.97;23.56;93874.03;5013606;28;20100;-66
2022/09/12 10:46:15;;;;;;;2.00;0.80;;;;;;;29.50;25.37;93881.91;5012905;28;20151;-68
2022/09/12 10:49:11;;;;;;;1.92;0.80;;;;;;;26.66;30.15;93876.59;5000473;28;20056;-66
2022/09/12 10:51:38;;;;;;;2.35;0.88;;;;;;;30.80;25.46;93876.47;5012241;28;20870;-66
2022/09/12 10:54:09;;;;;;;2.03;0.70;;;;;;;32.58;22.82;93879.31;5013106;28;20053;-70
2022/09/12 10:57:06;;;;;;;2.10;0.80;;;;;;;32.40;22.18;93878.28;5013395;28;20050;-66
2022/09/12 10:59:59;;;;;;;2.55;0.70;;;;;;;32.11;22.38;93874.72;5012297;28;21834;-66
2022/09/12 11:02:44;;;;;;;2.63;0.90;;;;;;;30.55;24.32;93870.34;5012256;28;20395;-69
2022/09/12 11:05:18;;;;;;;1.90;0.80;;;;;;;30.88;23.78;93879.38;5013128;28;20054;-69
2022/09/12 11:07:51;;;;;;;2.00;0.80;;;;;;;31.48;23.25;93872.03;5013533;28;20048;-70
2022/09/12 11:10:36;;;;;;;1.90;0.70;;;;;;;31.23;24.20;93872.34;5011329;28;20095;-70
2022/09/12 11:13:44;;;;;;;2.05;0.90;;;;;;;27.64;27.78;93881.66;5012944;28;20056;-66
2022/09/12 11:16:34;;;;;;;2.05;1.00;;;;;;;27.04;28.71;93874.00;5001306;28;20053;-66
2022/09/12 11:19:23;;;;;;;1.90;0.80;;;;;;;27.79;28.66;93881.22;5011177;28;20490;-66
2022/09/12 11:22:08;;;;;;;1.92;0.90;;;;;;;26.46;29.47;93877.72;5013180;28;20054;-66
2022/09/12 11:24:53;;;;;;;3.20;1.00;;;;;;;24.46;32.62;93868.69;5011798;28;20621;-65
2022/09/12 11:27:46;;;;;;;2.47;1.00;;;;;;;23.21;34.64;93870.22;5011948;28;20691;-66
2022/09/12 11:30:16;;;;;;;2.20;1.00;;;;;;;25.40;31.10;93865.66;5012445;28;20503;-66
2022/09/12 11:32:48;;;;;;;1.92;0.90;;;;;;;26.12;30.68;93869.50;5012236;28;20107;-66
2022/09/12 11:35:23;;;;;;;1.95;1.00;;;;;;;25.88;30.46;93867.28;5012146;28;20045;-66
2022/09/12 11:38:02;;;;;;;2.43;0.80;;;;;;;26.37;30.44;93867.56;5011866;28;20037;-66
2022/09/12 11:40:44;;;;;;;2.65;0.95;;;;;;;26.45;30.56;93862.91;5004408;28;20050;-66
2022/09/12 11:43:32;;;;;;;2.10;0.88;;;;;;;25.99;31.02;93856.00;5012400;28;20048;-66
2022/09/12 11:46:33;;;;;;;2.40;1.00;;;;;;;25.08;32.53;93857.50;5011883;28;20046;-70
2022/09/12 11:49:00;;;;;;;3.85;1.15;;;;;;;24.80;33.11;93854.72;5011762;28;20046;-67
2022/09/12 11:52:05;;;;;;;2.50;1.00;;;;;;;25.11;32.67;93853.66;5011199;28;20348;-66
2022/09/12 11:54:36;;;;;;;2.55;1.10;;;;;;;25.22;33.59;93844.50;5011613;28;20116;-66
2022/09/12 11:57:03;;;;;;;2.85;1.20;;;;;;;25.14;33.52;93847.03;5012088;28;20075;-66
2022/09/12 11:59:50;;;;;;;2.03;1.00;;;;;;;25.56;32.35;93845.16;5012048;28;20049;-66
2022/09/12 12:02:24;;;;;;;1.90;0.80;;;;;;;25.14;31.78;93841.41;5011910;28;20046;-66